Phoenix Cross — MRBQ7 — position and weather

sailwx.info

Track history (hours):
 
Tides and Currents Weather Stations Pressure Air Temp Water Temp Dewpoint Dewpoint Depression Visibility Wind Speed Wind Dir Waves Ship Positions

Phoenix Cross

Last reported at 2014-Sep-18 16:33 UTC. Time now 2014-Sep-18 21:46 UTC.
Position N 54°35' W 001°13'.

Length 30 m; draft 5 m.

Type: Ship. MMSI: 235067452.

Date/timePositionNaut miles runAvg speedWind from/ knotsBaromVisibWave heightAir tempDewpointWater temp
2014-Sep-18 16:33N 54°35' W 001°13'2 1.6
2014-Sep-18 15:32N 54°36' W 001°10'2 1.6
2014-Sep-18 14:32N 54°37' W 001°09'3 3.3
2014-Sep-18 13:33N 54°35' W 001°13'0 0.0
2014-Sep-18 12:33N 54°35' W 001°13'0 0.0
2014-Sep-18 11:33N 54°35' W 001°13'0 0.0
2014-Sep-18 10:34N 54°35' W 001°13'2 1.6
2014-Sep-18 09:32N 54°36' W 001°10'2 1.7
2014-Sep-18 08:33N 54°35' W 001°13'0 0.0
2014-Sep-18 07:33N 54°35' W 001°13'0 0.0
2014-Sep-18 06:33N 54°35' W 001°13'0 0.0
2014-Sep-18 05:11N 54°35' W 001°13'4 0.5
2014-Sep-17 22:30N 54°38' W 001°09'4 4.1
2014-Sep-17 21:29N 54°42' W 001°11'4 0.7
2014-Sep-17 15:14N 54°38' W 001°10'3 0.9
2014-Sep-17 11:31N 54°35' W 001°13'0 0.0
2014-Sep-17 10:33N 54°35' W 001°13'0 0.0
2014-Sep-17 09:33N 54°35' W 001°13'0 0.0
2014-Sep-17 08:33N 54°35' W 001°13'0 0.0
2014-Sep-17 07:33N 54°35' W 001°13'3 1.4
2014-Sep-17 05:11N 54°37' W 001°09'3 0.5
2014-Sep-16 23:05N 54°35' W 001°13'0 0.0
2014-Sep-16 22:26N 54°35' W 001°13'0 0.0
2014-Sep-16 21:28N 54°35' W 001°13'0 0.0
2014-Sep-16 20:15N 54°35' W 001°13'3 0.4
2014-Sep-16 11:32N 54°38' W 001°09'0 0.4
2014-Sep-16 10:33N 54°37' W 001°09'1 1.1
2014-Sep-16 09:33N 54°36' W 001°10'0 0.3
2014-Sep-16 08:33N 54°36' W 001°10'0 0.4
2014-Sep-16 07:32N 54°36' W 001°10'2 2.1
2014-Sep-16 06:33N 54°35' W 001°13'0 0.0
2014-Sep-15 11:22N 54°35' W 001°13'0 0.0
2014-Sep-15 10:32N 54°35' W 001°13'0 0.0
2014-Sep-15 09:33N 54°35' W 001°13'0 0.0
2014-Sep-15 08:33N 54°35' W 001°13'0 0.0
2014-Sep-15 07:33N 54°35' W 001°13'4 3.7
2014-Sep-15 06:33N 54°38' W 001°09'1 1.0
2014-Sep-15 05:33N 54°38' W 001°11'0 0.0
2014-Sep-13 15:03N 54°38' W 001°11'1 2.2
2014-Sep-13 14:32N 54°37' W 001°09'3 3.2
2014-Sep-13 13:33N 54°35' W 001°13'0 0.0
2014-Sep-13 12:33N 54°35' W 001°13'0 0.0
2014-Sep-13 11:33N 54°35' W 001°13'3 3.3
2014-Sep-13 10:33N 54°38' W 001°10'2 1.6
2014-Sep-13 09:34N 54°36' W 001°10'2 1.9
2014-Sep-13 08:33N 54°35' W 001°13'0 0.0
2014-Sep-13 07:33N 54°35' W 001°13'2 2.0
2014-Sep-13 06:33N 54°36' W 001°10'6 2.8
2014-Sep-13 04:33N 54°42' W 001°12'7 0.6
2014-Sep-12 17:16N 54°35' W 001°13'0 0.0
2014-Sep-12 16:34N 54°35' W 001°13'0 0.0
2014-Sep-12 15:33N 54°35' W 001°13'0 0.0
2014-Sep-12 14:33N 54°35' W 001°13'0 0.0
2014-Sep-12 13:33N 54°35' W 001°13'0 0.0
2014-Sep-12 12:32N 54°35' W 001°13'0 0.0
2014-Sep-12 11:32N 54°35' W 001°13'0 0.0
2014-Sep-12 10:33N 54°35' W 001°13'0 0.0
2014-Sep-12 09:32N 54°35' W 001°13'0 0.0
2014-Sep-12 08:31N 54°35' W 001°13'0 0.0
2014-Sep-12 07:30N 54°35' W 001°13'0 0.0
2014-Sep-12 06:32N 54°35' W 001°13'0 0.0
2014-Sep-12 05:25N 54°35' W 001°13'0 0.0
2014-Sep-11 17:33N 54°35' W 001°13'0 0.0
2014-Sep-11 16:33N 54°35' W 001°13'3 3.2
2014-Sep-11 15:32N 54°37' W 001°09'3 3.2
2014-Sep-11 14:32N 54°35' W 001°13'0 0.0
2014-Sep-11 13:32N 54°35' W 001°13'0 0.0
2014-Sep-11 12:33N 54°35' W 001°13'3 3.1
2014-Sep-11 11:33N 54°37' W 001°10'0 0.2
2014-Sep-11 10:33N 54°38' W 001°10'0 0.3
2014-Sep-11 09:33N 54°37' W 001°09'3 3.1
2014-Sep-11 08:33N 54°35' W 001°13'3 3.1
2014-Sep-11 07:32N 54°37' W 001°10'1 0.9
2014-Sep-11 06:32N 54°38' W 001°09'4 0.3
2014-Sep-10 18:24N 54°35' W 001°13'0 0.0
2014-Sep-10 17:33N 54°35' W 001°13'0 0.0
2014-Sep-10 16:32N 54°35' W 001°13'0 0.0
2014-Sep-10 15:32N 54°35' W 001°13'0 0.0
2014-Sep-10 14:32N 54°35' W 001°13'0 0.0
2014-Sep-10 13:33N 54°35' W 001°13'0 0.0
2014-Sep-10 12:33N 54°35' W 001°13'0 0.0
2014-Sep-10 11:33N 54°35' W 001°13'0 0.0
2014-Sep-10 10:33N 54°35' W 001°13'0 0.0
2014-Sep-10 09:33N 54°35' W 001°13'0 0.0
2014-Sep-10 08:32N 54°35' W 001°13'0 0.0
2014-Sep-10 07:33N 54°35' W 001°13'0 0.0
2014-Sep-10 06:32N 54°35' W 001°13'0 0.0
2014-Sep-10 05:33N 54°35' W 001°13'5 0.4
2014-Sep-09 18:19N 54°39' W 001°09'4 4.6
2014-Sep-09 17:33N 54°35' W 001°11'1 1.1
2014-Sep-09 16:31N 54°35' W 001°13'0 0.0
2014-Sep-09 15:33N 54°35' W 001°13'0 0.0
2014-Sep-09 14:33N 54°35' W 001°13'0 0.0
2014-Sep-09 13:33N 54°35' W 001°13'0 0.0
2014-Sep-09 12:33N 54°35' W 001°13'0 0.0
2014-Sep-09 11:32N 54°35' W 001°13'0 0.0
2014-Sep-09 10:32N 54°35' W 001°13'2 2.4
2014-Sep-09 09:34N 54°36' W 001°09'1 0.9
2014-Sep-09 08:33N 54°36' W 001°11'1 1.4
2014-Sep-09 07:32N 54°35' W 001°13'0 0.0
2014-Sep-09 06:30N 54°35' W 001°13'3 2.9
2014-Sep-09 05:25N 54°37' W 001°09'1 0.2
2014-Sep-08 23:10N 54°39' W 001°09'1 0.2
2014-Sep-08 17:12N 54°37' W 001°09'  
Track history (hours):
 
Tides and Currents Weather Stations Pressure Air Temp Water Temp Dewpoint Dewpoint Depression Visibility Wind Speed Wind Dir Waves Ship Positions

Phoenix Cross

Last reported at 2014-Sep-18 16:33 UTC. Time now 2014-Sep-18 21:46 UTC.
Position N 54°35' W 001°13'.

Length 30 m; draft 5 m.

Type: Ship. MMSI: 235067452.

Date/timePositionNaut miles runAvg speedWind from/ knotsBaromVisibWave heightAir tempDewpointWater temp
2014-Sep-18 16:33N 54°35' W 001°13'2 1.6
2014-Sep-18 15:32N 54°36' W 001°10'2 1.6
2014-Sep-18 14:32N 54°37' W 001°09'3 3.3
2014-Sep-18 13:33N 54°35' W 001°13'0 0.0
2014-Sep-18 12:33N 54°35' W 001°13'0 0.0
2014-Sep-18 11:33N 54°35' W 001°13'0 0.0
2014-Sep-18 10:34N 54°35' W 001°13'2 1.6
2014-Sep-18 09:32N 54°36' W 001°10'2 1.7
2014-Sep-18 08:33N 54°35' W 001°13'0 0.0
2014-Sep-18 07:33N 54°35' W 001°13'0 0.0
2014-Sep-18 06:33N 54°35' W 001°13'0 0.0
2014-Sep-18 05:11N 54°35' W 001°13'4 0.5
2014-Sep-17 22:30N 54°38' W 001°09'4 4.1
2014-Sep-17 21:29N 54°42' W 001°11'4 0.7
2014-Sep-17 15:14N 54°38' W 001°10'3 0.9
2014-Sep-17 11:31N 54°35' W 001°13'0 0.0
2014-Sep-17 10:33N 54°35' W 001°13'0 0.0
2014-Sep-17 09:33N 54°35' W 001°13'0 0.0
2014-Sep-17 08:33N 54°35' W 001°13'0 0.0
2014-Sep-17 07:33N 54°35' W 001°13'3 1.4
2014-Sep-17 05:11N 54°37' W 001°09'3 0.5
2014-Sep-16 23:05N 54°35' W 001°13'0 0.0
2014-Sep-16 22:26N 54°35' W 001°13'0 0.0
2014-Sep-16 21:28N 54°35' W 001°13'0 0.0
2014-Sep-16 20:15N 54°35' W 001°13'3 0.4
2014-Sep-16 11:32N 54°38' W 001°09'0 0.4
2014-Sep-16 10:33N 54°37' W 001°09'1 1.1
2014-Sep-16 09:33N 54°36' W 001°10'0 0.3
2014-Sep-16 08:33N 54°36' W 001°10'0 0.4
2014-Sep-16 07:32N 54°36' W 001°10'2 2.1
2014-Sep-16 06:33N 54°35' W 001°13'0 0.0
2014-Sep-15 11:22N 54°35' W 001°13'0 0.0
2014-Sep-15 10:32N 54°35' W 001°13'0 0.0
2014-Sep-15 09:33N 54°35' W 001°13'0 0.0
2014-Sep-15 08:33N 54°35' W 001°13'0 0.0
2014-Sep-15 07:33N 54°35' W 001°13'4 3.7
2014-Sep-15 06:33N 54°38' W 001°09'1 1.0
2014-Sep-15 05:33N 54°38' W 001°11'0 0.0
2014-Sep-13 15:03N 54°38' W 001°11'1 2.2
2014-Sep-13 14:32N 54°37' W 001°09'3 3.2
2014-Sep-13 13:33N 54°35' W 001°13'0 0.0
2014-Sep-13 12:33N 54°35' W 001°13'0 0.0
2014-Sep-13 11:33N 54°35' W 001°13'3 3.3
2014-Sep-13 10:33N 54°38' W 001°10'2 1.6
2014-Sep-13 09:34N 54°36' W 001°10'2 1.9
2014-Sep-13 08:33N 54°35' W 001°13'0 0.0
2014-Sep-13 07:33N 54°35' W 001°13'2 2.0
2014-Sep-13 06:33N 54°36' W 001°10'6 2.8
2014-Sep-13 04:33N 54°42' W 001°12'7 0.6
2014-Sep-12 17:16N 54°35' W 001°13'0 0.0
2014-Sep-12 16:34N 54°35' W 001°13'0 0.0
2014-Sep-12 15:33N 54°35' W 001°13'0 0.0
2014-Sep-12 14:33N 54°35' W 001°13'0 0.0
2014-Sep-12 13:33N 54°35' W 001°13'0 0.0
2014-Sep-12 12:32N 54°35' W 001°13'0 0.0
2014-Sep-12 11:32N 54°35' W 001°13'0 0.0
2014-Sep-12 10:33N 54°35' W 001°13'0 0.0
2014-Sep-12 09:32N 54°35' W 001°13'0 0.0
2014-Sep-12 08:31N 54°35' W 001°13'0 0.0
2014-Sep-12 07:30N 54°35' W 001°13'0 0.0
2014-Sep-12 06:32N 54°35' W 001°13'0 0.0
2014-Sep-12 05:25N 54°35' W 001°13'0 0.0
2014-Sep-11 17:33N 54°35' W 001°13'0 0.0
2014-Sep-11 16:33N 54°35' W 001°13'3 3.2
2014-Sep-11 15:32N 54°37' W 001°09'3 3.2
2014-Sep-11 14:32N 54°35' W 001°13'0 0.0
2014-Sep-11 13:32N 54°35' W 001°13'0 0.0
2014-Sep-11 12:33N 54°35' W 001°13'3 3.1
2014-Sep-11 11:33N 54°37' W 001°10'0 0.2
2014-Sep-11 10:33N 54°38' W 001°10'0 0.3
2014-Sep-11 09:33N 54°37' W 001°09'3 3.1
2014-Sep-11 08:33N 54°35' W 001°13'3 3.1
2014-Sep-11 07:32N 54°37' W 001°10'1 0.9
2014-Sep-11 06:32N 54°38' W 001°09'4 0.3
2014-Sep-10 18:24N 54°35' W 001°13'0 0.0
2014-Sep-10 17:33N 54°35' W 001°13'0 0.0
2014-Sep-10 16:32N 54°35' W 001°13'0 0.0
2014-Sep-10 15:32N 54°35' W 001°13'0 0.0
2014-Sep-10 14:32N 54°35' W 001°13'0 0.0
2014-Sep-10 13:33N 54°35' W 001°13'0 0.0
2014-Sep-10 12:33N 54°35' W 001°13'0 0.0
2014-Sep-10 11:33N 54°35' W 001°13'0 0.0
2014-Sep-10 10:33N 54°35' W 001°13'0 0.0
2014-Sep-10 09:33N 54°35' W 001°13'0 0.0
2014-Sep-10 08:32N 54°35' W 001°13'0 0.0
2014-Sep-10 07:33N 54°35' W 001°13'0 0.0
2014-Sep-10 06:32N 54°35' W 001°13'0 0.0
2014-Sep-10 05:33N 54°35' W 001°13'5 0.4
2014-Sep-09 18:19N 54°39' W 001°09'4 4.6
2014-Sep-09 17:33N 54°35' W 001°11'1 1.1
2014-Sep-09 16:31N 54°35' W 001°13'0 0.0
2014-Sep-09 15:33N 54°35' W 001°13'0 0.0
2014-Sep-09 14:33N 54°35' W 001°13'0 0.0
2014-Sep-09 13:33N 54°35' W 001°13'0 0.0
2014-Sep-09 12:33N 54°35' W 001°13'0 0.0
2014-Sep-09 11:32N 54°35' W 001°13'0 0.0
2014-Sep-09 10:32N 54°35' W 001°13'2 2.4
2014-Sep-09 09:34N 54°36' W 001°09'1 0.9
2014-Sep-09 08:33N 54°36' W 001°11'1 1.4
2014-Sep-09 07:32N 54°35' W 001°13'0 0.0
2014-Sep-09 06:30N 54°35' W 001°13'3 2.9
2014-Sep-09 05:25N 54°37' W 001°09'1 0.2
2014-Sep-08 23:10N 54°39' W 001°09'1 0.2
2014-Sep-08 17:12N 54°37' W 001°09'  

Dump ship's entire track history